sensor_id;sensor_type;location;lat;lon;timestamp;P1;durP1;ratioP1;P2;durP2;ratioP2
7289;SDS011;63176;52.678;13.250;2022-11-14T00:00:31;30.52;;;14.82;;
7289;SDS011;63176;52.678;13.250;2022-11-14T00:03:01;35.33;;;16.08;;
7289;SDS011;63176;52.678;13.250;2022-11-14T00:05:28;35.22;;;16.98;;
7289;SDS011;63176;52.678;13.250;2022-11-14T00:07:54;48.90;;;15.90;;
7289;SDS011;63176;52.678;13.250;2022-11-14T00:10:19;32.17;;;16.27;;
7289;SDS011;63176;52.678;13.250;2022-11-14T00:12:45;31.50;;;15.10;;
7289;SDS011;63176;52.678;13.250;2022-11-14T00:15:11;40.47;;;17.70;;
7289;SDS011;63176;52.678;13.250;2022-11-14T00:17:37;37.75;;;16.70;;
7289;SDS011;63176;52.678;13.250;2022-11-14T00:20:05;37.20;;;16.35;;
7289;SDS011;63176;52.678;13.250;2022-11-14T00:22:32;35.28;;;16.15;;
7289;SDS011;63176;52.678;13.250;2022-11-14T00:24:58;32.75;;;16.85;;
7289;SDS011;63176;52.678;13.250;2022-11-14T00:27:23;31.43;;;16.30;;
7289;SDS011;63176;52.678;13.250;2022-11-14T00:29:49;36.43;;;17.20;;
7289;SDS011;63176;52.678;13.250;2022-11-14T00:32:15;38.07;;;16.30;;
7289;SDS011;63176;52.678;13.250;2022-11-14T00:34:41;34.70;;;15.60;;
7289;SDS011;63176;52.678;13.250;2022-11-14T00:37:06;35.53;;;16.23;;
7289;SDS011;63176;52.678;13.250;2022-11-14T00:39:32;40.20;;;16.20;;
7289;SDS011;63176;52.678;13.250;2022-11-14T00:41:58;32.50;;;16.90;;
7289;SDS011;63176;52.678;13.250;2022-11-14T00:44:23;31.37;;;15.77;;
7289;SDS011;63176;52.678;13.250;2022-11-14T00:46:49;35.80;;;16.97;;
7289;SDS011;63176;52.678;13.250;2022-11-14T00:49:14;41.17;;;16.87;;
7289;SDS011;63176;52.678;13.250;2022-11-14T00:51:40;36.27;;;17.13;;
7289;SDS011;63176;52.678;13.250;2022-11-14T00:54:06;35.47;;;16.37;;
7289;SDS011;63176;52.678;13.250;2022-11-14T00:56:31;35.50;;;17.67;;
7289;SDS011;63176;52.678;13.250;2022-11-14T00:58:57;43.07;;;19.37;;
7289;SDS011;63176;52.678;13.250;2022-11-14T01:01:22;38.37;;;16.83;;
7289;SDS011;63176;52.678;13.250;2022-11-14T01:03:49;40.37;;;17.17;;
7289;SDS011;63176;52.678;13.250;2022-11-14T01:06:15;35.15;;;17.15;;
7289;SDS011;63176;52.678;13.250;2022-11-14T01:08:42;37.22;;;17.40;;
7289;SDS011;63176;52.678;13.250;2022-11-14T01:11:09;35.40;;;17.48;;
7289;SDS011;63176;52.678;13.250;2022-11-14T01:13:36;39.55;;;18.73;;
7289;SDS011;63176;52.678;13.250;2022-11-14T01:16:02;37.83;;;17.52;;
7289;SDS011;63176;52.678;13.250;2022-11-14T01:18:28;35.20;;;17.80;;
7289;SDS011;63176;52.678;13.250;2022-11-14T01:20:54;36.40;;;17.77;;
7289;SDS011;63176;52.678;13.250;2022-11-14T01:23:19;40.80;;;17.37;;
7289;SDS011;63176;52.678;13.250;2022-11-14T01:25:45;34.53;;;16.40;;
7289;SDS011;63176;52.678;13.250;2022-11-14T01:28:12;41.87;;;17.20;;
7289;SDS011;63176;52.678;13.250;2022-11-14T01:30:39;40.97;;;17.98;;
7289;SDS011;63176;52.678;13.250;2022-11-14T01:33:05;41.70;;;18.57;;
7289;SDS011;63176;52.678;13.250;2022-11-14T01:35:31;38.20;;;16.43;;
7289;SDS011;63176;52.678;13.250;2022-11-14T01:37:58;41.78;;;18.48;;
7289;SDS011;63176;52.678;13.250;2022-11-14T01:40:24;42.17;;;17.60;;
7289;SDS011;63176;52.678;13.250;2022-11-14T01:48:32;44.38;;;17.15;;
7289;SDS011;63176;52.678;13.250;2022-11-14T01:53:53;41.10;;;19.10;;
7289;SDS011;63176;52.678;13.250;2022-11-14T01:56:23;33.80;;;15.57;;
7289;SDS011;63176;52.678;13.250;2022-11-14T01:58:55;43.92;;;19.20;;
7289;SDS011;63176;52.678;13.250;2022-11-14T02:01:27;36.42;;;16.83;;
7289;SDS011;63176;52.678;13.250;2022-11-14T02:03:55;41.88;;;18.15;;
7289;SDS011;63176;52.678;13.250;2022-11-14T02:06:22;34.85;;;15.93;;
7289;SDS011;63176;52.678;13.250;2022-11-14T02:08:51;41.78;;;19.83;;
7289;SDS011;63176;52.678;13.250;2022-11-14T02:11:19;45.63;;;18.20;;
7289;SDS011;63176;52.678;13.250;2022-11-14T02:13:44;52.90;;;19.43;;
7289;SDS011;63176;52.678;13.250;2022-11-14T02:16:10;41.43;;;18.47;;
7289;SDS011;63176;52.678;13.250;2022-11-14T02:18:36;36.73;;;17.63;;
7289;SDS011;63176;52.678;13.250;2022-11-14T02:21:01;42.23;;;17.50;;
7289;SDS011;63176;52.678;13.250;2022-11-14T02:23:28;40.37;;;18.53;;
7289;SDS011;63176;52.678;13.250;2022-11-14T02:25:55;50.72;;;18.55;;
7289;SDS011;63176;52.678;13.250;2022-11-14T02:28:21;41.17;;;16.63;;
7289;SDS011;63176;52.678;13.250;2022-11-14T02:30:47;41.30;;;18.63;;
7289;SDS011;63176;52.678;13.250;2022-11-14T02:33:13;43.30;;;17.70;;
7289;SDS011;63176;52.678;13.250;2022-11-14T02:35:39;37.72;;;17.63;;
7289;SDS011;63176;52.678;13.250;2022-11-14T02:38:05;42.13;;;17.80;;
7289;SDS011;63176;52.678;13.250;2022-11-14T02:40:31;46.60;;;19.47;;
7289;SDS011;63176;52.678;13.250;2022-11-14T02:42:57;33.70;;;15.82;;
7289;SDS011;63176;52.678;13.250;2022-11-14T02:45:22;42.50;;;18.70;;
7289;SDS011;63176;52.678;13.250;2022-11-14T02:47:48;48.17;;;20.37;;
7289;SDS011;63176;52.678;13.250;2022-11-14T02:50:14;48.97;;;18.70;;
7289;SDS011;63176;52.678;13.250;2022-11-14T02:52:40;51.30;;;21.30;;
7289;SDS011;63176;52.678;13.250;2022-11-14T02:55:05;49.00;;;18.17;;
7289;SDS011;63176;52.678;13.250;2022-11-14T02:57:31;46.80;;;18.25;;
7289;SDS011;63176;52.678;13.250;2022-11-14T02:59:57;39.23;;;17.77;;
7289;SDS011;63176;52.678;13.250;2022-11-14T03:02:22;43.57;;;19.47;;
7289;SDS011;63176;52.678;13.250;2022-11-14T03:04:48;37.53;;;17.97;;
7289;SDS011;63176;52.678;13.250;2022-11-14T03:07:14;45.87;;;19.07;;
7289;SDS011;63176;52.678;13.250;2022-11-14T03:09:39;56.27;;;20.17;;
7289;SDS011;63176;52.678;13.250;2022-11-14T03:12:05;48.67;;;16.97;;
7289;SDS011;63176;52.678;13.250;2022-11-14T03:14:30;44.50;;;20.30;;
7289;SDS011;63176;52.678;13.250;2022-11-14T03:16:56;50.73;;;19.77;;
7289;SDS011;63176;52.678;13.250;2022-11-14T03:19:22;47.30;;;20.30;;
7289;SDS011;63176;52.678;13.250;2022-11-14T03:21:47;49.50;;;19.43;;
7289;SDS011;63176;52.678;13.250;2022-11-14T03:24:13;49.07;;;18.00;;
7289;SDS011;63176;52.678;13.250;2022-11-14T03:26:39;45.27;;;20.23;;
7289;SDS011;63176;52.678;13.250;2022-11-14T03:29:06;41.13;;;17.83;;
7289;SDS011;63176;52.678;13.250;2022-11-14T03:31:32;51.35;;;19.30;;
7289;SDS011;63176;52.678;13.250;2022-11-14T03:33:58;45.07;;;17.87;;
7289;SDS011;63176;52.678;13.250;2022-11-14T03:36:23;41.53;;;18.20;;
7289;SDS011;63176;52.678;13.250;2022-11-14T03:38:49;44.47;;;18.87;;
7289;SDS011;63176;52.678;13.250;2022-11-14T03:41:14;52.10;;;18.97;;
7289;SDS011;63176;52.678;13.250;2022-11-14T03:43:40;47.17;;;19.60;;
7289;SDS011;63176;52.678;13.250;2022-11-14T03:46:06;44.37;;;17.73;;
7289;SDS011;63176;52.678;13.250;2022-11-14T03:48:31;47.73;;;18.10;;
7289;SDS011;63176;52.678;13.250;2022-11-14T03:50:57;40.90;;;18.50;;
7289;SDS011;63176;52.678;13.250;2022-11-14T03:53:23;44.17;;;17.67;;
7289;SDS011;63176;52.678;13.250;2022-11-14T03:55:48;36.50;;;17.97;;
7289;SDS011;63176;52.678;13.250;2022-11-14T03:58:15;50.80;;;19.23;;
7289;SDS011;63176;52.678;13.250;2022-11-14T04:00:40;45.93;;;17.23;;
7289;SDS011;63176;52.678;13.250;2022-11-14T04:03:06;52.63;;;17.70;;
7289;SDS011;63176;52.678;13.250;2022-11-14T04:05:32;49.97;;;20.50;;
7289;SDS011;63176;52.678;13.250;2022-11-14T04:07:57;47.57;;;19.00;;
7289;SDS011;63176;52.678;13.250;2022-11-14T04:10:23;49.17;;;18.87;;
7289;SDS011;63176;52.678;13.250;2022-11-14T04:12:51;48.13;;;18.63;;
7289;SDS011;63176;52.678;13.250;2022-11-14T04:15:18;44.58;;;17.92;;
7289;SDS011;63176;52.678;13.250;2022-11-14T04:17:44;52.53;;;18.92;;
7289;SDS011;63176;52.678;13.250;2022-11-14T04:20:11;45.15;;;18.30;;
7289;SDS011;63176;52.678;13.250;2022-11-14T04:22:38;41.03;;;18.02;;
7289;SDS011;63176;52.678;13.250;2022-11-14T04:25:04;48.70;;;19.30;;
7289;SDS011;63176;52.678;13.250;2022-11-14T04:27:31;39.38;;;18.15;;
7289;SDS011;63176;52.678;13.250;2022-11-14T04:29:56;42.93;;;17.43;;
7289;SDS011;63176;52.678;13.250;2022-11-14T04:32:22;51.60;;;19.30;;
7289;SDS011;63176;52.678;13.250;2022-11-14T04:34:47;48.47;;;19.70;;
7289;SDS011;63176;52.678;13.250;2022-11-14T04:37:13;47.50;;;18.83;;
7289;SDS011;63176;52.678;13.250;2022-11-14T04:39:39;48.10;;;18.80;;
7289;SDS011;63176;52.678;13.250;2022-11-14T04:42:04;47.10;;;20.03;;
7289;SDS011;63176;52.678;13.250;2022-11-14T04:44:30;47.03;;;19.63;;
7289;SDS011;63176;52.678;13.250;2022-11-14T04:46:56;49.10;;;18.93;;
7289;SDS011;63176;52.678;13.250;2022-11-14T04:49:21;41.20;;;17.90;;
7289;SDS011;63176;52.678;13.250;2022-11-14T04:51:47;40.83;;;17.60;;
7289;SDS011;63176;52.678;13.250;2022-11-14T04:54:13;48.78;;;19.13;;
7289;SDS011;63176;52.678;13.250;2022-11-14T04:56:39;53.33;;;18.50;;
7289;SDS011;63176;52.678;13.250;2022-11-14T04:59:04;49.20;;;21.30;;
7289;SDS011;63176;52.678;13.250;2022-11-14T05:01:30;47.80;;;19.10;;
7289;SDS011;63176;52.678;13.250;2022-11-14T05:03:56;48.30;;;20.07;;
7289;SDS011;63176;52.678;13.250;2022-11-14T05:06:21;45.37;;;18.87;;
7289;SDS011;63176;52.678;13.250;2022-11-14T05:08:47;48.50;;;18.20;;
7289;SDS011;63176;52.678;13.250;2022-11-14T05:11:13;41.13;;;17.57;;
7289;SDS011;63176;52.678;13.250;2022-11-14T05:13:40;47.83;;;19.20;;
7289;SDS011;63176;52.678;13.250;2022-11-14T05:16:06;44.92;;;19.35;;
7289;SDS011;63176;52.678;13.250;2022-11-14T05:18:31;51.23;;;19.03;;
7289;SDS011;63176;52.678;13.250;2022-11-14T05:20:58;57.20;;;18.47;;
7289;SDS011;63176;52.678;13.250;2022-11-14T05:23:24;40.83;;;16.73;;
7289;SDS011;63176;52.678;13.250;2022-11-14T05:26:24;50.72;;;19.30;;
7289;SDS011;63176;52.678;13.250;2022-11-14T05:28:43;48.67;;;19.67;;
7289;SDS011;63176;52.678;13.250;2022-11-14T05:31:10;42.63;;;18.83;;
7289;SDS011;63176;52.678;13.250;2022-11-14T05:33:46;48.78;;;19.05;;
7289;SDS011;63176;52.678;13.250;2022-11-14T05:36:12;47.63;;;18.08;;
7289;SDS011;63176;52.678;13.250;2022-11-14T05:38:40;49.13;;;17.63;;
7289;SDS011;63176;52.678;13.250;2022-11-14T05:41:06;47.15;;;18.75;;
7289;SDS011;63176;52.678;13.250;2022-11-14T05:43:33;47.67;;;18.05;;
7289;SDS011;63176;52.678;13.250;2022-11-14T05:45:59;50.03;;;18.77;;
7289;SDS011;63176;52.678;13.250;2022-11-14T05:48:26;46.83;;;18.25;;
7289;SDS011;63176;52.678;13.250;2022-11-14T05:50:56;44.90;;;19.63;;
7289;SDS011;63176;52.678;13.250;2022-11-14T05:53:23;43.63;;;16.40;;
7289;SDS011;63176;52.678;13.250;2022-11-14T05:55:49;45.15;;;17.63;;
7289;SDS011;63176;52.678;13.250;2022-11-14T05:58:15;46.03;;;20.30;;
7289;SDS011;63176;52.678;13.250;2022-11-14T06:00:40;51.33;;;18.90;;
7289;SDS011;63176;52.678;13.250;2022-11-14T06:03:06;46.67;;;17.87;;
7289;SDS011;63176;52.678;13.250;2022-11-14T06:05:33;50.23;;;18.30;;
7289;SDS011;63176;52.678;13.250;2022-11-14T06:08:00;47.92;;;17.30;;
7289;SDS011;63176;52.678;13.250;2022-11-14T06:10:26;55.25;;;19.42;;
7289;SDS011;63176;52.678;13.250;2022-11-14T06:12:53;44.72;;;18.17;;
7289;SDS011;63176;52.678;13.250;2022-11-14T06:15:18;52.30;;;18.77;;
7289;SDS011;63176;52.678;13.250;2022-11-14T06:17:44;45.97;;;18.17;;
7289;SDS011;63176;52.678;13.250;2022-11-14T06:20:10;51.80;;;18.97;;
7289;SDS011;63176;52.678;13.250;2022-11-14T06:22:37;47.42;;;18.38;;
7289;SDS011;63176;52.678;13.250;2022-11-14T06:25:04;40.65;;;18.80;;
7289;SDS011;63176;52.678;13.250;2022-11-14T06:27:30;54.00;;;19.92;;
7289;SDS011;63176;52.678;13.250;2022-11-14T06:29:56;48.10;;;19.70;;
7289;SDS011;63176;52.678;13.250;2022-11-14T06:32:21;41.20;;;17.10;;
7289;SDS011;63176;52.678;13.250;2022-11-14T06:34:47;43.23;;;17.43;;
7289;SDS011;63176;52.678;13.250;2022-11-14T06:37:13;42.83;;;19.00;;
7289;SDS011;63176;52.678;13.250;2022-11-14T06:39:38;48.73;;;19.33;;
7289;SDS011;63176;52.678;13.250;2022-11-14T06:42:04;44.00;;;17.17;;
7289;SDS011;63176;52.678;13.250;2022-11-14T06:44:29;50.03;;;19.63;;
7289;SDS011;63176;52.678;13.250;2022-11-14T06:46:55;48.13;;;19.40;;
7289;SDS011;63176;52.678;13.250;2022-11-14T06:49:20;55.27;;;18.77;;
7289;SDS011;63176;52.678;13.250;2022-11-14T06:51:48;46.53;;;17.83;;
7289;SDS011;63176;52.678;13.250;2022-11-14T06:54:14;36.88;;;16.40;;
7289;SDS011;63176;52.678;13.250;2022-11-14T06:56:40;43.73;;;17.73;;
7289;SDS011;63176;52.678;13.250;2022-11-14T06:59:06;46.10;;;17.30;;
7289;SDS011;63176;52.678;13.250;2022-11-14T07:01:31;52.33;;;17.97;;
7289;SDS011;63176;52.678;13.250;2022-11-14T07:03:57;43.50;;;17.80;;
7289;SDS011;63176;52.678;13.250;2022-11-14T07:06:25;47.45;;;19.83;;
7289;SDS011;63176;52.678;13.250;2022-11-14T07:08:52;43.00;;;16.25;;
7289;SDS011;63176;52.678;13.250;2022-11-14T07:11:19;43.90;;;17.55;;
7289;SDS011;63176;52.678;13.250;2022-11-14T07:13:50;49.13;;;17.10;;
7289;SDS011;63176;52.678;13.250;2022-11-14T07:16:24;46.75;;;17.95;;
7289;SDS011;63176;52.678;13.250;2022-11-14T07:18:53;41.15;;;15.80;;
7289;SDS011;63176;52.678;13.250;2022-11-14T07:21:19;48.35;;;18.38;;
7289;SDS011;63176;52.678;13.250;2022-11-14T07:23:45;50.03;;;16.33;;
7289;SDS011;63176;52.678;13.250;2022-11-14T07:26:11;39.80;;;15.70;;
7289;SDS011;63176;52.678;13.250;2022-11-14T07:28:41;51.85;;;18.02;;
7289;SDS011;63176;52.678;13.250;2022-11-14T07:31:08;46.90;;;18.77;;
7289;SDS011;63176;52.678;13.250;2022-11-14T07:33:36;51.45;;;18.48;;
7289;SDS011;63176;52.678;13.250;2022-11-14T07:36:02;49.40;;;18.83;;
7289;SDS011;63176;52.678;13.250;2022-11-14T07:38:31;50.80;;;18.13;;
7289;SDS011;63176;52.678;13.250;2022-11-14T07:40:58;46.50;;;17.98;;
7289;SDS011;63176;52.678;13.250;2022-11-14T07:43:26;42.50;;;16.02;;
7289;SDS011;63176;52.678;13.250;2022-11-14T07:45:52;38.00;;;16.35;;
7289;SDS011;63176;52.678;13.250;2022-11-14T07:48:18;44.57;;;17.50;;
7289;SDS011;63176;52.678;13.250;2022-11-14T07:50:45;44.63;;;16.70;;
7289;SDS011;63176;52.678;13.250;2022-11-14T07:53:11;45.30;;;16.35;;
7289;SDS011;63176;52.678;13.250;2022-11-14T07:55:39;55.28;;;16.77;;
7289;SDS011;63176;52.678;13.250;2022-11-14T07:58:04;48.57;;;15.90;;
7289;SDS011;63176;52.678;13.250;2022-11-14T08:00:30;49.97;;;18.73;;
7289;SDS011;63176;52.678;13.250;2022-11-14T08:02:56;45.03;;;17.10;;
7289;SDS011;63176;52.678;13.250;2022-11-14T08:05:21;65.07;;;17.97;;
7289;SDS011;63176;52.678;13.250;2022-11-14T08:07:50;51.80;;;18.13;;
7289;SDS011;63176;52.678;13.250;2022-11-14T08:10:16;40.42;;;16.30;;
7289;SDS011;63176;52.678;13.250;2022-11-14T08:12:43;46.35;;;17.23;;
7289;SDS011;63176;52.678;13.250;2022-11-14T08:15:10;38.70;;;15.80;;
7289;SDS011;63176;52.678;13.250;2022-11-14T08:17:37;42.78;;;15.70;;
7289;SDS011;63176;52.678;13.250;2022-11-14T08:20:04;49.10;;;17.67;;
7289;SDS011;63176;52.678;13.250;2022-11-14T08:22:31;37.60;;;17.15;;
7289;SDS011;63176;52.678;13.250;2022-11-14T08:24:57;48.30;;;16.77;;
7289;SDS011;63176;52.678;13.250;2022-11-14T08:27:23;39.73;;;15.80;;
7289;SDS011;63176;52.678;13.250;2022-11-14T08:29:49;42.75;;;16.33;;
7289;SDS011;63176;52.678;13.250;2022-11-14T08:32:16;43.15;;;16.95;;
7289;SDS011;63176;52.678;13.250;2022-11-14T08:34:42;46.05;;;15.93;;
7289;SDS011;63176;52.678;13.250;2022-11-14T08:37:08;39.27;;;16.23;;
7289;SDS011;63176;52.678;13.250;2022-11-14T08:39:33;39.07;;;15.50;;
7289;SDS011;63176;52.678;13.250;2022-11-14T08:41:59;39.33;;;14.67;;
7289;SDS011;63176;52.678;13.250;2022-11-14T08:44:25;40.83;;;18.23;;
7289;SDS011;63176;52.678;13.250;2022-11-14T08:46:50;41.60;;;15.90;;
7289;SDS011;63176;52.678;13.250;2022-11-14T08:49:16;47.77;;;17.03;;
7289;SDS011;63176;52.678;13.250;2022-11-14T08:51:41;41.67;;;16.40;;
7289;SDS011;63176;52.678;13.250;2022-11-14T08:54:07;39.70;;;16.90;;
7289;SDS011;63176;52.678;13.250;2022-11-14T08:56:33;43.00;;;17.87;;
7289;SDS011;63176;52.678;13.250;2022-11-14T08:58:58;44.67;;;15.73;;
7289;SDS011;63176;52.678;13.250;2022-11-14T09:01:27;47.65;;;17.33;;
7289;SDS011;63176;52.678;13.250;2022-11-14T09:03:53;40.57;;;16.03;;
7289;SDS011;63176;52.678;13.250;2022-11-14T09:06:19;46.57;;;16.07;;
7289;SDS011;63176;52.678;13.250;2022-11-14T09:08:44;50.30;;;18.73;;
7289;SDS011;63176;52.678;13.250;2022-11-14T09:11:10;43.37;;;16.70;;
7289;SDS011;63176;52.678;13.250;2022-11-14T09:13:35;39.10;;;15.67;;
7289;SDS011;63176;52.678;13.250;2022-11-14T09:16:01;40.80;;;15.50;;
7289;SDS011;63176;52.678;13.250;2022-11-14T09:18:28;48.40;;;17.23;;
7289;SDS011;63176;52.678;13.250;2022-11-14T09:20:58;46.80;;;17.00;;
7289;SDS011;63176;52.678;13.250;2022-11-14T09:23:31;39.05;;;14.45;;
7289;SDS011;63176;52.678;13.250;2022-11-14T09:25:58;41.30;;;16.40;;
7289;SDS011;63176;52.678;13.250;2022-11-14T09:28:31;39.85;;;14.95;;
7289;SDS011;63176;52.678;13.250;2022-11-14T09:31:02;42.30;;;16.70;;
7289;SDS011;63176;52.678;13.250;2022-11-14T09:33:30;36.33;;;13.98;;
7289;SDS011;63176;52.678;13.250;2022-11-14T09:35:57;42.90;;;15.90;;
7289;SDS011;63176;52.678;13.250;2022-11-14T09:38:24;38.40;;;15.07;;
7289;SDS011;63176;52.678;13.250;2022-11-14T09:46:24;37.13;;;14.82;;
7289;SDS011;63176;52.678;13.250;2022-11-14T09:48:55;35.95;;;13.85;;
7289;SDS011;63176;52.678;13.250;2022-11-14T09:51:22;38.00;;;15.40;;
7289;SDS011;63176;52.678;13.250;2022-11-14T09:53:55;37.95;;;14.60;;
7289;SDS011;63176;52.678;13.250;2022-11-14T09:56:44;36.72;;;14.57;;
7289;SDS011;63176;52.678;13.250;2022-11-14T09:59:10;40.83;;;14.00;;
7289;SDS011;63176;52.678;13.250;2022-11-14T10:21:30;38.38;;;14.05;;
7289;SDS011;63176;52.678;13.250;2022-11-14T10:27:02;34.33;;;15.13;;
7289;SDS011;63176;52.678;13.250;2022-11-14T10:34:50;32.47;;;14.10;;
7289;SDS011;63176;52.678;13.250;2022-11-14T10:41:07;37.63;;;14.00;;
7289;SDS011;63176;52.678;13.250;2022-11-14T10:48:31;39.33;;;14.97;;
7289;SDS011;63176;52.678;13.250;2022-11-14T10:56:13;30.73;;;14.27;;
7289;SDS011;63176;52.678;13.250;2022-11-14T10:58:39;34.80;;;14.40;;
7289;SDS011;63176;52.678;13.250;2022-11-14T11:01:30;37.63;;;13.85;;
7289;SDS011;63176;52.678;13.250;2022-11-14T11:04:27;39.05;;;16.08;;
7289;SDS011;63176;52.678;13.250;2022-11-14T11:06:54;31.05;;;12.95;;
7289;SDS011;63176;52.678;13.250;2022-11-14T11:09:36;29.90;;;13.27;;
7289;SDS011;63176;52.678;13.250;2022-11-14T11:12:23;36.03;;;15.30;;
7289;SDS011;63176;52.678;13.250;2022-11-14T11:15:16;33.72;;;14.15;;
7289;SDS011;63176;52.678;13.250;2022-11-14T11:21:01;31.27;;;12.43;;
7289;SDS011;63176;52.678;13.250;2022-11-14T11:23:27;25.80;;;12.90;;
7289;SDS011;63176;52.678;13.250;2022-11-14T11:26:05;28.53;;;13.63;;
7289;SDS011;63176;52.678;13.250;2022-11-14T11:28:39;32.03;;;14.13;;
7289;SDS011;63176;52.678;13.250;2022-11-14T11:31:06;27.53;;;13.23;;
7289;SDS011;63176;52.678;13.250;2022-11-14T11:33:34;31.35;;;14.18;;
7289;SDS011;63176;52.678;13.250;2022-11-14T11:36:11;29.50;;;12.75;;
7289;SDS011;63176;52.678;13.250;2022-11-14T11:38:40;25.55;;;12.88;;
7289;SDS011;63176;52.678;13.250;2022-11-14T11:43:40;35.72;;;15.18;;
7289;SDS011;63176;52.678;13.250;2022-11-14T11:46:15;40.00;;;15.50;;
7289;SDS011;63176;52.678;13.250;2022-11-14T11:48:45;30.38;;;14.10;;
7289;SDS011;63176;52.678;13.250;2022-11-14T11:51:16;27.13;;;13.73;;
7289;SDS011;63176;52.678;13.250;2022-11-14T11:53:50;38.47;;;14.60;;
7289;SDS011;63176;52.678;13.250;2022-11-14T11:56:31;30.38;;;12.52;;
7289;SDS011;63176;52.678;13.250;2022-11-14T11:59:13;27.45;;;13.00;;
7289;SDS011;63176;52.678;13.250;2022-11-14T12:01:52;31.90;;;15.52;;
7289;SDS011;63176;52.678;13.250;2022-11-14T12:04:18;32.15;;;13.73;;
7289;SDS011;63176;52.678;13.250;2022-11-14T12:06:45;24.92;;;13.75;;
7289;SDS011;63176;52.678;13.250;2022-11-14T12:09:37;29.30;;;13.45;;
7289;SDS011;63176;52.678;13.250;2022-11-14T12:12:05;31.40;;;13.70;;
7289;SDS011;63176;52.678;13.250;2022-11-14T12:15:09;27.02;;;13.00;;
7289;SDS011;63176;52.678;13.250;2022-11-14T12:29:30;27.50;;;13.27;;
7289;SDS011;63176;52.678;13.250;2022-11-14T12:31:47;24.40;;;11.60;;
7289;SDS011;63176;52.678;13.250;2022-11-14T12:34:26;32.63;;;14.38;;
7289;SDS011;63176;52.678;13.250;2022-11-14T12:36:59;29.63;;;13.55;;
7289;SDS011;63176;52.678;13.250;2022-11-14T12:39:31;29.58;;;13.05;;
7289;SDS011;63176;52.678;13.250;2022-11-14T12:42:03;33.27;;;13.83;;
7289;SDS011;63176;52.678;13.250;2022-11-14T12:50:26;30.85;;;13.55;;
7289;SDS011;63176;52.678;13.250;2022-11-14T13:00:24;27.15;;;13.73;;
7289;SDS011;63176;52.678;13.250;2022-11-14T13:02:56;21.70;;;12.48;;
7289;SDS011;63176;52.678;13.250;2022-11-14T13:05:47;31.83;;;12.88;;
7289;SDS011;63176;52.678;13.250;2022-11-14T13:08:35;32.70;;;13.15;;
7289;SDS011;63176;52.678;13.250;2022-11-14T13:14:22;26.50;;;12.52;;
7289;SDS011;63176;52.678;13.250;2022-11-14T13:20:27;26.73;;;11.95;;
7289;SDS011;63176;52.678;13.250;2022-11-14T13:23:54;28.95;;;12.35;;
7289;SDS011;63176;52.678;13.250;2022-11-14T13:33:52;28.58;;;12.85;;
7289;SDS011;63176;52.678;13.250;2022-11-14T13:38:55;23.23;;;12.05;;
7289;SDS011;63176;52.678;13.250;2022-11-14T13:41:39;30.60;;;13.73;;
7289;SDS011;63176;52.678;13.250;2022-11-14T13:52:12;36.08;;;13.80;;
7289;SDS011;63176;52.678;13.250;2022-11-14T13:54:48;36.75;;;13.73;;
7289;SDS011;63176;52.678;13.250;2022-11-14T14:00:21;31.60;;;11.32;;
7289;SDS011;63176;52.678;13.250;2022-11-14T14:05:45;24.27;;;12.75;;
7289;SDS011;63176;52.678;13.250;2022-11-14T14:11:24;26.45;;;12.73;;
7289;SDS011;63176;52.678;13.250;2022-11-14T14:13:59;26.08;;;13.50;;
7289;SDS011;63176;52.678;13.250;2022-11-14T14:16:40;20.27;;;10.63;;
7289;SDS011;63176;52.678;13.250;2022-11-14T14:19:21;26.85;;;13.60;;
7289;SDS011;63176;52.678;13.250;2022-11-14T14:22:11;26.55;;;12.10;;
7289;SDS011;63176;52.678;13.250;2022-11-14T14:28:05;26.92;;;12.50;;
7289;SDS011;63176;52.678;13.250;2022-11-14T14:30:39;23.45;;;11.73;;
7289;SDS011;63176;52.678;13.250;2022-11-14T14:33:14;26.37;;;13.07;;
7289;SDS011;63176;52.678;13.250;2022-11-14T14:35:50;22.60;;;10.80;;
7289;SDS011;63176;52.678;13.250;2022-11-14T14:38:26;26.50;;;12.95;;
7289;SDS011;63176;52.678;13.250;2022-11-14T14:40:54;23.98;;;13.25;;
7289;SDS011;63176;52.678;13.250;2022-11-14T14:43:24;28.83;;;12.55;;
7289;SDS011;63176;52.678;13.250;2022-11-14T14:45:56;29.75;;;14.30;;
7289;SDS011;63176;52.678;13.250;2022-11-14T14:48:24;25.27;;;11.60;;
7289;SDS011;63176;52.678;13.250;2022-11-14T14:50:53;27.85;;;11.98;;
7289;SDS011;63176;52.678;13.250;2022-11-14T14:53:27;24.52;;;12.73;;
7289;SDS011;63176;52.678;13.250;2022-11-14T14:55:56;23.35;;;12.43;;
7289;SDS011;63176;52.678;13.250;2022-11-14T15:00:50;26.42;;;11.40;;
7289;SDS011;63176;52.678;13.250;2022-11-14T15:03:19;24.73;;;12.60;;
7289;SDS011;63176;52.678;13.250;2022-11-14T15:05:46;25.92;;;13.43;;
7289;SDS011;63176;52.678;13.250;2022-11-14T15:08:13;26.50;;;12.70;;
7289;SDS011;63176;52.678;13.250;2022-11-14T15:10:40;32.85;;;14.32;;
7289;SDS011;63176;52.678;13.250;2022-11-14T15:13:07;32.10;;;13.30;;
7289;SDS011;63176;52.678;13.250;2022-11-14T15:15:39;25.75;;;13.07;;
7289;SDS011;63176;52.678;13.250;2022-11-14T15:18:06;31.67;;;15.20;;
7289;SDS011;63176;52.678;13.250;2022-11-14T15:20:38;26.00;;;13.60;;
7289;SDS011;63176;52.678;13.250;2022-11-14T15:23:05;26.57;;;13.90;;
7289;SDS011;63176;52.678;13.250;2022-11-14T15:25:34;29.20;;;13.43;;
7289;SDS011;63176;52.678;13.250;2022-11-14T15:28:00;22.70;;;12.52;;
7289;SDS011;63176;52.678;13.250;2022-11-14T15:30:30;23.10;;;12.10;;
7289;SDS011;63176;52.678;13.250;2022-11-14T15:33:02;28.17;;;13.50;;
7289;SDS011;63176;52.678;13.250;2022-11-14T15:35:31;25.75;;;13.02;;
7289;SDS011;63176;52.678;13.250;2022-11-14T15:38:05;27.02;;;13.38;;
7289;SDS011;63176;52.678;13.250;2022-11-14T15:40:36;25.83;;;12.05;;
7289;SDS011;63176;52.678;13.250;2022-11-14T15:46:26;26.98;;;12.63;;
7289;SDS011;63176;52.678;13.250;2022-11-14T15:48:53;24.70;;;13.63;;
7289;SDS011;63176;52.678;13.250;2022-11-14T15:51:36;32.80;;;13.73;;
7289;SDS011;63176;52.678;13.250;2022-11-14T15:54:24;27.83;;;12.73;;
7289;SDS011;63176;52.678;13.250;2022-11-14T15:56:50;27.52;;;13.70;;
7289;SDS011;63176;52.678;13.250;2022-11-14T15:59:16;29.98;;;13.85;;
7289;SDS011;63176;52.678;13.250;2022-11-14T16:01:43;27.40;;;14.18;;
7289;SDS011;63176;52.678;13.250;2022-11-14T16:04:18;24.50;;;13.35;;
7289;SDS011;63176;52.678;13.250;2022-11-14T16:06:45;29.50;;;14.40;;
7289;SDS011;63176;52.678;13.250;2022-11-14T16:09:16;27.90;;;14.27;;
7289;SDS011;63176;52.678;13.250;2022-11-14T16:11:43;29.10;;;15.25;;
7289;SDS011;63176;52.678;13.250;2022-11-14T16:14:09;27.23;;;14.75;;
7289;SDS011;63176;52.678;13.250;2022-11-14T16:16:35;29.80;;;15.47;;
7289;SDS011;63176;52.678;13.250;2022-11-14T16:19:01;27.20;;;14.47;;
7289;SDS011;63176;52.678;13.250;2022-11-14T16:21:27;26.48;;;13.45;;
7289;SDS011;63176;52.678;13.250;2022-11-14T16:23:53;23.97;;;13.47;;
7289;SDS011;63176;52.678;13.250;2022-11-14T16:26:19;27.70;;;12.97;;
7289;SDS011;63176;52.678;13.250;2022-11-14T16:28:44;23.67;;;13.37;;
7289;SDS011;63176;52.678;13.250;2022-11-14T16:31:10;24.40;;;14.23;;
7289;SDS011;63176;52.678;13.250;2022-11-14T16:33:37;26.05;;;14.55;;
7289;SDS011;63176;52.678;13.250;2022-11-14T16:36:03;25.97;;;14.53;;
7289;SDS011;63176;52.678;13.250;2022-11-14T16:38:28;23.20;;;13.13;;